sensor_id;sensor_type;location;lat;lon;timestamp;temperature;humidity
796;DHT22;381;48.770;9.188;2024-03-08T00:04:36;5.70;98.00
796;DHT22;381;48.770;9.188;2024-03-08T00:09:39;5.70;97.90
796;DHT22;381;48.770;9.188;2024-03-08T00:14:42;5.60;97.90
796;DHT22;381;48.770;9.188;2024-03-08T00:19:45;5.60;98.10
796;DHT22;381;48.770;9.188;2024-03-08T00:24:48;5.60;98.20
796;DHT22;381;48.770;9.188;2024-03-08T00:29:53;5.60;98.00
796;DHT22;381;48.770;9.188;2024-03-08T00:34:55;5.60;97.60
796;DHT22;381;48.770;9.188;2024-03-08T00:39:57;5.60;97.60
796;DHT22;381;48.770;9.188;2024-03-08T00:45:01;5.50;97.60
796;DHT22;381;48.770;9.188;2024-03-08T00:50:05;5.40;97.60
796;DHT22;381;48.770;9.188;2024-03-08T00:55:08;5.30;97.60
796;DHT22;381;48.770;9.188;2024-03-08T01:00:13;5.30;97.60
796;DHT22;381;48.770;9.188;2024-03-08T01:05:16;5.20;97.80
796;DHT22;381;48.770;9.188;2024-03-08T01:10:18;5.10;97.90
796;DHT22;381;48.770;9.188;2024-03-08T01:15:22;5.10;98.10
796;DHT22;381;48.770;9.188;2024-03-08T01:20:24;5.10;97.80
796;DHT22;381;48.770;9.188;2024-03-08T01:25:27;5.10;97.80
796;DHT22;381;48.770;9.188;2024-03-08T01:30:33;5.00;97.70
796;DHT22;381;48.770;9.188;2024-03-08T01:35:37;5.00;97.60
796;DHT22;381;48.770;9.188;2024-03-08T01:40:42;5.00;97.60
796;DHT22;381;48.770;9.188;2024-03-08T01:45:46;5.00;97.60
796;DHT22;381;48.770;9.188;2024-03-08T01:50:48;4.80;97.60
796;DHT22;381;48.770;9.188;2024-03-08T01:55:54;4.80;97.60
796;DHT22;381;48.770;9.188;2024-03-08T02:00:59;4.80;97.70
796;DHT22;381;48.770;9.188;2024-03-08T02:06:06;4.70;97.70
796;DHT22;381;48.770;9.188;2024-03-08T02:11:11;4.60;97.90
796;DHT22;381;48.770;9.188;2024-03-08T02:16:20;4.60;97.80
796;DHT22;381;48.770;9.188;2024-03-08T02:21:25;4.60;97.80
796;DHT22;381;48.770;9.188;2024-03-08T02:26:27;4.60;98.10
796;DHT22;381;48.770;9.188;2024-03-08T02:31:30;4.60;97.70
796;DHT22;381;48.770;9.188;2024-03-08T02:36:33;4.50;97.60
796;DHT22;381;48.770;9.188;2024-03-08T02:41:36;4.50;97.70
796;DHT22;381;48.770;9.188;2024-03-08T02:46:38;4.50;97.80
796;DHT22;381;48.770;9.188;2024-03-08T02:51:42;4.50;98.00
796;DHT22;381;48.770;9.188;2024-03-08T02:56:44;4.50;97.80
796;DHT22;381;48.770;9.188;2024-03-08T03:01:47;4.50;97.70
796;DHT22;381;48.770;9.188;2024-03-08T03:06:51;4.50;97.80
796;DHT22;381;48.770;9.188;2024-03-08T03:11:54;4.50;97.80
796;DHT22;381;48.770;9.188;2024-03-08T03:16:56;4.60;97.90
796;DHT22;381;48.770;9.188;2024-03-08T03:22:02;4.70;97.50
796;DHT22;381;48.770;9.188;2024-03-08T03:27:04;4.70;97.90
796;DHT22;381;48.770;9.188;2024-03-08T03:32:11;4.80;97.90
796;DHT22;381;48.770;9.188;2024-03-08T03:37:15;4.80;97.70
796;DHT22;381;48.770;9.188;2024-03-08T03:42:19;4.90;97.60
796;DHT22;381;48.770;9.188;2024-03-08T03:47:22;4.90;97.40
796;DHT22;381;48.770;9.188;2024-03-08T03:52:25;5.00;97.40
796;DHT22;381;48.770;9.188;2024-03-08T03:57:28;5.00;97.40
796;DHT22;381;48.770;9.188;2024-03-08T04:02:31;5.00;97.20
796;DHT22;381;48.770;9.188;2024-03-08T04:07:34;5.00;97.00
796;DHT22;381;48.770;9.188;2024-03-08T04:12:37;5.00;96.80
796;DHT22;381;48.770;9.188;2024-03-08T04:17:39;5.00;96.70
796;DHT22;381;48.770;9.188;2024-03-08T04:22:43;5.00;96.30
796;DHT22;381;48.770;9.188;2024-03-08T04:27:49;5.00;96.20
796;DHT22;381;48.770;9.188;2024-03-08T04:32:53;4.90;96.10
796;DHT22;381;48.770;9.188;2024-03-08T04:37:57;4.90;96.30
796;DHT22;381;48.770;9.188;2024-03-08T04:42:59;4.80;96.30
796;DHT22;381;48.770;9.188;2024-03-08T04:48:02;4.80;96.40
796;DHT22;381;48.770;9.188;2024-03-08T04:53:05;4.80;96.30
796;DHT22;381;48.770;9.188;2024-03-08T04:58:09;4.80;96.40
796;DHT22;381;48.770;9.188;2024-03-08T05:03:11;4.80;96.40
796;DHT22;381;48.770;9.188;2024-03-08T05:08:15;4.80;96.20
796;DHT22;381;48.770;9.188;2024-03-08T05:13:19;4.80;96.30
796;DHT22;381;48.770;9.188;2024-03-08T05:18:22;4.80;96.50
796;DHT22;381;48.770;9.188;2024-03-08T05:23:25;4.80;96.40
796;DHT22;381;48.770;9.188;2024-03-08T05:28:28;4.80;96.50
796;DHT22;381;48.770;9.188;2024-03-08T05:33:30;4.80;96.20
796;DHT22;381;48.770;9.188;2024-03-08T05:38:34;4.80;96.60
796;DHT22;381;48.770;9.188;2024-03-08T05:43:36;4.70;96.50
796;DHT22;381;48.770;9.188;2024-03-08T05:48:38;4.70;96.40
796;DHT22;381;48.770;9.188;2024-03-08T05:53:42;4.70;96.40
796;DHT22;381;48.770;9.188;2024-03-08T05:58:44;4.70;96.70
796;DHT22;381;48.770;9.188;2024-03-08T06:03:48;4.60;96.60
796;DHT22;381;48.770;9.188;2024-03-08T06:08:52;4.60;96.70
796;DHT22;381;48.770;9.188;2024-03-08T06:13:57;4.70;96.50
796;DHT22;381;48.770;9.188;2024-03-08T06:19:01;4.60;96.40
796;DHT22;381;48.770;9.188;2024-03-08T06:24:05;4.60;96.40
796;DHT22;381;48.770;9.188;2024-03-08T06:29:08;4.50;96.20
796;DHT22;381;48.770;9.188;2024-03-08T06:34:10;4.50;96.30
796;DHT22;381;48.770;9.188;2024-03-08T06:39:14;4.50;96.30
796;DHT22;381;48.770;9.188;2024-03-08T06:44:16;4.40;96.60
796;DHT22;381;48.770;9.188;2024-03-08T06:49:18;4.40;96.90
796;DHT22;381;48.770;9.188;2024-03-08T06:54:22;4.50;97.20
796;DHT22;381;48.770;9.188;2024-03-08T06:59:25;4.50;97.20
796;DHT22;381;48.770;9.188;2024-03-08T07:04:28;4.70;97.40
796;DHT22;381;48.770;9.188;2024-03-08T07:09:32;4.80;97.50
796;DHT22;381;48.770;9.188;2024-03-08T07:14:37;5.00;97.70
796;DHT22;381;48.770;9.188;2024-03-08T07:19:41;5.30;97.50
796;DHT22;381;48.770;9.188;2024-03-08T07:24:45;5.50;97.60
796;DHT22;381;48.770;9.188;2024-03-08T07:30:06;5.70;97.50
796;DHT22;381;48.770;9.188;2024-03-08T07:35:11;6.00;97.30
796;DHT22;381;48.770;9.188;2024-03-08T07:40:15;6.20;96.60
796;DHT22;381;48.770;9.188;2024-03-08T07:45:19;6.30;96.50
796;DHT22;381;48.770;9.188;2024-03-08T07:50:23;6.50;96.90
796;DHT22;381;48.770;9.188;2024-03-08T07:55:26;6.60;96.10
796;DHT22;381;48.770;9.188;2024-03-08T08:00:30;6.80;96.20
796;DHT22;381;48.770;9.188;2024-03-08T08:05:32;6.90;95.80
796;DHT22;381;48.770;9.188;2024-03-08T08:10:40;7.00;95.20
796;DHT22;381;48.770;9.188;2024-03-08T08:15:43;7.10;94.10
796;DHT22;381;48.770;9.188;2024-03-08T08:20:46;7.00;93.90
796;DHT22;381;48.770;9.188;2024-03-08T08:25:50;6.90;94.00
796;DHT22;381;48.770;9.188;2024-03-08T08:30:53;6.80;94.60
796;DHT22;381;48.770;9.188;2024-03-08T08:35:55;6.80;94.50
796;DHT22;381;48.770;9.188;2024-03-08T08:40:59;6.80;94.60
796;DHT22;381;48.770;9.188;2024-03-08T08:46:03;6.90;94.80
796;DHT22;381;48.770;9.188;2024-03-08T08:51:06;7.00;95.00
796;DHT22;381;48.770;9.188;2024-03-08T08:56:10;7.20;94.30
796;DHT22;381;48.770;9.188;2024-03-08T09:01:13;7.10;93.60
796;DHT22;381;48.770;9.188;2024-03-08T09:06:17;7.00;93.80
796;DHT22;381;48.770;9.188;2024-03-08T09:11:21;7.10;94.70
796;DHT22;381;48.770;9.188;2024-03-08T09:16:23;7.20;93.90
796;DHT22;381;48.770;9.188;2024-03-08T09:21:26;7.20;94.20
796;DHT22;381;48.770;9.188;2024-03-08T09:26:29;7.20;93.80
796;DHT22;381;48.770;9.188;2024-03-08T09:31:32;7.20;94.10
796;DHT22;381;48.770;9.188;2024-03-08T09:36:35;7.10;94.00
796;DHT22;381;48.770;9.188;2024-03-08T09:41:39;7.10;94.00
796;DHT22;381;48.770;9.188;2024-03-08T09:46:42;7.20;94.40
796;DHT22;381;48.770;9.188;2024-03-08T09:51:45;7.40;94.70
796;DHT22;381;48.770;9.188;2024-03-08T09:56:51;7.50;94.20
796;DHT22;381;48.770;9.188;2024-03-08T10:01:54;7.70;94.60
796;DHT22;381;48.770;9.188;2024-03-08T10:06:58;7.80;93.70
796;DHT22;381;48.770;9.188;2024-03-08T10:12:02;7.90;94.20
796;DHT22;381;48.770;9.188;2024-03-08T10:17:04;8.10;93.80
796;DHT22;381;48.770;9.188;2024-03-08T10:22:14;8.20;93.70
796;DHT22;381;48.770;9.188;2024-03-08T10:27:18;8.30;93.20
796;DHT22;381;48.770;9.188;2024-03-08T10:32:21;8.40;92.70
796;DHT22;381;48.770;9.188;2024-03-08T10:37:26;8.50;92.60
796;DHT22;381;48.770;9.188;2024-03-08T10:42:32;8.60;92.80
796;DHT22;381;48.770;9.188;2024-03-08T10:47:40;8.60;91.80
796;DHT22;381;48.770;9.188;2024-03-08T10:52:44;8.60;92.30
796;DHT22;381;48.770;9.188;2024-03-08T10:57:51;8.70;92.00
796;DHT22;381;48.770;9.188;2024-03-08T11:02:54;8.80;91.90
796;DHT22;381;48.770;9.188;2024-03-08T11:07:57;8.90;92.50
796;DHT22;381;48.770;9.188;2024-03-08T11:13:02;9.00;92.40
796;DHT22;381;48.770;9.188;2024-03-08T11:18:06;9.10;92.30
796;DHT22;381;48.770;9.188;2024-03-08T11:23:11;9.20;92.20
796;DHT22;381;48.770;9.188;2024-03-08T11:28:17;9.30;91.70
796;DHT22;381;48.770;9.188;2024-03-08T11:33:20;9.20;91.90
796;DHT22;381;48.770;9.188;2024-03-08T11:38:22;9.10;92.30
796;DHT22;381;48.770;9.188;2024-03-08T11:43:26;9.10;91.50
796;DHT22;381;48.770;9.188;2024-03-08T11:48:29;9.00;91.80
796;DHT22;381;48.770;9.188;2024-03-08T11:53:33;8.90;92.00
796;DHT22;381;48.770;9.188;2024-03-08T11:58:39;8.80;91.70
796;DHT22;381;48.770;9.188;2024-03-08T12:03:41;8.60;91.50
796;DHT22;381;48.770;9.188;2024-03-08T12:08:45;8.30;92.30
796;DHT22;381;48.770;9.188;2024-03-08T12:13:51;8.10;92.70
796;DHT22;381;48.770;9.188;2024-03-08T12:18:55;8.10;93.40
796;DHT22;381;48.770;9.188;2024-03-08T12:24:03;8.10;93.10
796;DHT22;381;48.770;9.188;2024-03-08T12:29:18;8.10;92.90
796;DHT22;381;48.770;9.188;2024-03-08T12:34:24;8.10;93.20
796;DHT22;381;48.770;9.188;2024-03-08T12:39:30;8.10;92.90
796;DHT22;381;48.770;9.188;2024-03-08T12:44:33;8.20;93.50
796;DHT22;381;48.770;9.188;2024-03-08T12:49:36;8.30;92.80
796;DHT22;381;48.770;9.188;2024-03-08T12:54:38;8.30;93.20
796;DHT22;381;48.770;9.188;2024-03-08T12:59:42;8.40;93.70
796;DHT22;381;48.770;9.188;2024-03-08T13:04:45;8.50;93.10
796;DHT22;381;48.770;9.188;2024-03-08T13:09:56;8.50;93.10
796;DHT22;381;48.770;9.188;2024-03-08T13:15:02;8.60;93.60
796;DHT22;381;48.770;9.188;2024-03-08T13:20:07;8.60;93.70
796;DHT22;381;48.770;9.188;2024-03-08T13:25:11;8.80;93.20
796;DHT22;381;48.770;9.188;2024-03-08T13:30:15;8.80;93.00
796;DHT22;381;48.770;9.188;2024-03-08T13:35:19;8.90;92.80
796;DHT22;381;48.770;9.188;2024-03-08T13:40:25;8.90;93.20
796;DHT22;381;48.770;9.188;2024-03-08T13:45:29;8.90;93.20
796;DHT22;381;48.770;9.188;2024-03-08T13:50:31;9.00;93.20
796;DHT22;381;48.770;9.188;2024-03-08T13:55:33;9.00;93.60
796;DHT22;381;48.770;9.188;2024-03-08T14:00:37;9.10;92.80
796;DHT22;381;48.770;9.188;2024-03-08T14:05:42;9.10;93.00
796;DHT22;381;48.770;9.188;2024-03-08T14:10:45;9.10;93.80
796;DHT22;381;48.770;9.188;2024-03-08T14:15:49;9.20;92.80
796;DHT22;381;48.770;9.188;2024-03-08T14:20:53;9.30;92.40
796;DHT22;381;48.770;9.188;2024-03-08T14:25:56;9.50;91.90
796;DHT22;381;48.770;9.188;2024-03-08T14:31:01;9.50;92.40
796;DHT22;381;48.770;9.188;2024-03-08T14:36:04;9.50;92.60
796;DHT22;381;48.770;9.188;2024-03-08T14:41:07;9.60;93.00
796;DHT22;381;48.770;9.188;2024-03-08T14:46:11;9.60;93.10
796;DHT22;381;48.770;9.188;2024-03-08T14:51:18;9.60;92.60
796;DHT22;381;48.770;9.188;2024-03-08T14:56:22;9.70;92.50
796;DHT22;381;48.770;9.188;2024-03-08T15:01:29;9.80;92.30
796;DHT22;381;48.770;9.188;2024-03-08T15:06:34;9.90;92.40
796;DHT22;381;48.770;9.188;2024-03-08T15:11:38;9.90;92.50
796;DHT22;381;48.770;9.188;2024-03-08T15:16:42;10.00;91.70
796;DHT22;381;48.770;9.188;2024-03-08T15:21:46;10.00;91.90
796;DHT22;381;48.770;9.188;2024-03-08T15:26:49;10.10;91.70
796;DHT22;381;48.770;9.188;2024-03-08T15:31:57;10.20;91.60
796;DHT22;381;48.770;9.188;2024-03-08T15:37:00;10.30;91.60
796;DHT22;381;48.770;9.188;2024-03-08T15:42:04;10.30;92.20
796;DHT22;381;48.770;9.188;2024-03-08T15:47:08;10.30;91.50
796;DHT22;381;48.770;9.188;2024-03-08T15:52:12;10.40;91.60
796;DHT22;381;48.770;9.188;2024-03-08T15:57:15;10.60;91.30
796;DHT22;381;48.770;9.188;2024-03-08T16:02:21;10.60;91.50
796;DHT22;381;48.770;9.188;2024-03-08T16:07:26;10.70;91.40
796;DHT22;381;48.770;9.188;2024-03-08T16:12:28;10.70;91.30
796;DHT22;381;48.770;9.188;2024-03-08T16:17:32;10.70;91.30
796;DHT22;381;48.770;9.188;2024-03-08T16:22:34;10.70;91.20
796;DHT22;381;48.770;9.188;2024-03-08T16:27:36;10.70;91.20
796;DHT22;381;48.770;9.188;2024-03-08T16:32:41;10.80;91.10
796;DHT22;381;48.770;9.188;2024-03-08T16:37:44;10.80;90.90
796;DHT22;381;48.770;9.188;2024-03-08T16:42:48;10.80;90.70
796;DHT22;381;48.770;9.188;2024-03-08T16:47:54;10.70;90.60
796;DHT22;381;48.770;9.188;2024-03-08T16:52:56;10.70;90.50
796;DHT22;381;48.770;9.188;2024-03-08T16:57:59;10.70;90.50
796;DHT22;381;48.770;9.188;2024-03-08T17:03:03;10.60;90.70
796;DHT22;381;48.770;9.188;2024-03-08T17:08:08;10.60;90.80
796;DHT22;381;48.770;9.188;2024-03-08T17:13:11;10.40;91.10
796;DHT22;381;48.770;9.188;2024-03-08T17:18:17;10.30;91.70
796;DHT22;381;48.770;9.188;2024-03-08T17:23:20;10.10;92.10
796;DHT22;381;48.770;9.188;2024-03-08T17:28:23;10.00;92.70
796;DHT22;381;48.770;9.188;2024-03-08T17:33:29;9.80;93.30
796;DHT22;381;48.770;9.188;2024-03-08T17:38:36;9.70;93.80
796;DHT22;381;48.770;9.188;2024-03-08T17:43:45;9.60;94.10
796;DHT22;381;48.770;9.188;2024-03-08T17:48:49;9.50;94.00
796;DHT22;381;48.770;9.188;2024-03-08T17:53:54;9.40;94.10
796;DHT22;381;48.770;9.188;2024-03-08T17:58:57;9.20;94.20
796;DHT22;381;48.770;9.188;2024-03-08T18:04:01;9.20;94.10
796;DHT22;381;48.770;9.188;2024-03-08T18:09:04;9.10;94.30
796;DHT22;381;48.770;9.188;2024-03-08T18:14:11;8.90;94.40
796;DHT22;381;48.770;9.188;2024-03-08T18:19:16;8.80;94.30
796;DHT22;381;48.770;9.188;2024-03-08T18:24:20;8.70;94.40
796;DHT22;381;48.770;9.188;2024-03-08T18:29:22;8.50;94.70
796;DHT22;381;48.770;9.188;2024-03-08T18:34:26;8.40;94.80
796;DHT22;381;48.770;9.188;2024-03-08T18:39:28;8.30;94.90
796;DHT22;381;48.770;9.188;2024-03-08T18:44:31;8.30;94.60
796;DHT22;381;48.770;9.188;2024-03-08T18:49:34;8.30;94.90
796;DHT22;381;48.770;9.188;2024-03-08T18:54:37;8.20;95.00
796;DHT22;381;48.770;9.188;2024-03-08T18:59:39;8.20;94.90
796;DHT22;381;48.770;9.188;2024-03-08T19:04:43;8.20;94.70
796;DHT22;381;48.770;9.188;2024-03-08T19:09:46;8.20;94.50
796;DHT22;381;48.770;9.188;2024-03-08T19:14:48;8.20;94.30
796;DHT22;381;48.770;9.188;2024-03-08T19:19:53;8.30;94.10
796;DHT22;381;48.770;9.188;2024-03-08T19:24:56;8.30;94.20
796;DHT22;381;48.770;9.188;2024-03-08T19:29:58;8.30;93.60
796;DHT22;381;48.770;9.188;2024-03-08T19:35:02;8.30;93.50
796;DHT22;381;48.770;9.188;2024-03-08T19:40:13;8.30;93.10
796;DHT22;381;48.770;9.188;2024-03-08T19:45:20;8.30;92.70
796;DHT22;381;48.770;9.188;2024-03-08T19:50:28;8.40;91.50
796;DHT22;381;48.770;9.188;2024-03-08T19:55:31;8.40;91.50
796;DHT22;381;48.770;9.188;2024-03-08T20:00:34;8.50;91.50
796;DHT22;381;48.770;9.188;2024-03-08T20:05:39;8.40;91.80
796;DHT22;381;48.770;9.188;2024-03-08T20:10:44;8.30;92.00
796;DHT22;381;48.770;9.188;2024-03-08T20:15:48;8.20;92.20
796;DHT22;381;48.770;9.188;2024-03-08T20:20:56;8.20;92.40
796;DHT22;381;48.770;9.188;2024-03-08T20:25:58;8.10;92.50
796;DHT22;381;48.770;9.188;2024-03-08T20:31:03;8.00;92.30
796;DHT22;381;48.770;9.188;2024-03-08T20:36:07;8.00;92.40
796;DHT22;381;48.770;9.188;2024-03-08T20:41:10;7.90;92.40
796;DHT22;381;48.770;9.188;2024-03-08T20:46:12;7.80;92.50
796;DHT22;381;48.770;9.188;2024-03-08T20:51:17;7.70;92.60
796;DHT22;381;48.770;9.188;2024-03-08T20:56:20;7.60;93.00
796;DHT22;381;48.770;9.188;2024-03-08T21:01:22;7.30;92.90
796;DHT22;381;48.770;9.188;2024-03-08T21:06:33;7.20;93.10
796;DHT22;381;48.770;9.188;2024-03-08T21:11:35;7.10;93.30
796;DHT22;381;48.770;9.188;2024-03-08T21:16:38;7.00;93.50
796;DHT22;381;48.770;9.188;2024-03-08T21:21:44;6.90;93.70
796;DHT22;381;48.770;9.188;2024-03-08T21:26:50;6.80;93.70
796;DHT22;381;48.770;9.188;2024-03-08T21:31:53;6.70;93.90
796;DHT22;381;48.770;9.188;2024-03-08T21:36:58;6.70;94.00
796;DHT22;381;48.770;9.188;2024-03-08T21:42:00;6.70;94.20
796;DHT22;381;48.770;9.188;2024-03-08T21:47:04;6.60;94.30
796;DHT22;381;48.770;9.188;2024-03-08T21:52:08;6.60;94.50
796;DHT22;381;48.770;9.188;2024-03-08T21:57:10;6.50;94.40
796;DHT22;381;48.770;9.188;2024-03-08T22:02:13;6.50;94.50
796;DHT22;381;48.770;9.188;2024-03-08T22:07:17;6.40;94.60
796;DHT22;381;48.770;9.188;2024-03-08T22:12:20;6.40;94.60
796;DHT22;381;48.770;9.188;2024-03-08T22:17:22;6.40;94.90
796;DHT22;381;48.770;9.188;2024-03-08T22:22:27;6.30;95.30
796;DHT22;381;48.770;9.188;2024-03-08T22:27:29;6.30;95.20
796;DHT22;381;48.770;9.188;2024-03-08T22:32:33;6.20;95.20
796;DHT22;381;48.770;9.188;2024-03-08T22:37:38;6.30;95.30
796;DHT22;381;48.770;9.188;2024-03-08T22:42:42;6.30;95.40
796;DHT22;381;48.770;9.188;2024-03-08T22:47:45;6.30;95.50
796;DHT22;381;48.770;9.188;2024-03-08T22:52:49;6.30;95.60
796;DHT22;381;48.770;9.188;2024-03-08T22:57:51;6.30;95.60
796;DHT22;381;48.770;9.188;2024-03-08T23:02:54;6.30;95.70
796;DHT22;381;48.770;9.188;2024-03-08T23:07:58;6.40;95.70
796;DHT22;381;48.770;9.188;2024-03-08T23:13:05;6.30;95.70
796;DHT22;381;48.770;9.188;2024-03-08T23:18:07;6.30;95.80
796;DHT22;381;48.770;9.188;2024-03-08T23:23:13;6.30;96.00
796;DHT22;381;48.770;9.188;2024-03-08T23:28:16;6.30;95.70
796;DHT22;381;48.770;9.188;2024-03-08T23:33:18;6.20;95.90
796;DHT22;381;48.770;9.188;2024-03-08T23:38:22;6.20;95.90
796;DHT22;381;48.770;9.188;2024-03-08T23:43:25;6.10;95.90
796;DHT22;381;48.770;9.188;2024-03-08T23:48:28;6.10;96.00
796;DHT22;381;48.770;9.188;2024-03-08T23:53:32;6.10;96.20
796;DHT22;381;48.770;9.188;2024-03-08T23:58:35;6.10;96.20
